Time;durP1;ratioP1;P1;durP2;ratioP2;P2;SDS_P1;SDS_P2;PMS_P1;PMS_P2;Temp;Humidity;BMP_temperature;BMP_pressure;BME280_temperature;BME280_humidity;BME280_pressure;Samples;Min_cycle;Max_cycle;Signal;HPM_P1;HPM_P2
2023/07/29 00:00:09;;;;;;;;;;;21.00;99.90;;;21.24;67.24;98253.41;4980065;28;123891;-82
2023/07/29 00:02:40;;;;;;;;;;;21.00;99.90;;;21.23;67.15;98246.19;4965392;28;118502;-81
2023/07/29 00:05:07;;;;;;;;;;;21.00;99.90;;;21.23;67.22;98247.00;4977753;28;118592;-81
2023/07/29 00:07:39;;;;;;;;;;;21.00;99.90;;;21.24;67.06;98250.59;4983666;28;124170;-82
2023/07/29 00:10:15;;;;;;;;;;;21.00;99.90;;;21.23;67.21;98240.56;4986038;28;124240;-82
2023/07/29 00:12:42;;;;;;;;;;;21.00;99.90;;;21.24;67.43;98236.56;4982235;28;120987;-80
2023/07/29 00:15:09;;;;;;;;;;;21.00;99.90;;;21.25;67.09;98226.91;4976199;28;120131;-82
2023/07/29 00:17:37;;;;;;;;;;;21.00;99.90;;;21.25;67.39;98226.91;4971209;28;123779;-81
2023/07/29 00:20:05;;;;;;;;;;;21.00;99.90;;;21.25;67.34;98233.34;4984265;28;123705;-82
2023/07/29 00:22:31;;;;;;;;;;;21.00;99.90;;;21.26;67.52;98228.53;4985315;28;119409;-81
2023/07/29 00:24:59;;;;;;;;;;;21.00;99.90;;;21.28;67.38;98228.91;4983927;28;118779;-83
2023/07/29 00:27:28;;;;;;;;;;;21.00;99.90;;;21.27;67.37;98230.94;4985159;28;123751;-82
2023/07/29 00:29:54;;;;;;;;;;;21.00;99.90;;;21.27;67.03;98227.31;4985445;28;123922;-82
2023/07/29 00:32:21;;;;;;;;;;;21.00;99.90;;;21.26;67.42;98234.97;4985964;28;119407;-81
2023/07/29 00:34:50;;;;;;;;;;;20.90;99.90;;;21.26;66.98;98234.97;4986293;28;117778;-81
2023/07/29 00:37:17;;;;;;;;;;;21.00;99.90;;;21.26;67.02;98234.16;4986181;28;123321;-80
2023/07/29 00:39:51;;;;;;;;;;;21.00;99.90;;;21.27;67.21;98225.31;4972162;28;123295;-81
2023/07/29 00:42:17;;;;;;;;;;;21.00;99.90;;;21.29;66.97;98224.94;4956964;28;118324;-82
2023/07/29 00:44:44;;;;;;;;;;;21.00;99.90;;;21.29;66.80;98227.75;4982571;28;121177;-82
2023/07/29 00:47:14;;;;;;;;;;;21.00;99.90;;;21.30;67.19;98220.91;4984531;28;124123;-82
2023/07/29 00:49:40;;;;;;;;;;;21.00;99.90;;;21.29;66.96;98208.06;4981790;28;123653;-82
2023/07/29 00:52:06;;;;;;;;;;;21.00;99.90;;;21.30;66.80;98212.47;4984158;28;119499;-82
2023/07/29 00:54:33;;;;;;;;;;;21.00;99.90;;;21.29;67.03;98210.88;4985234;28;118775;-82
2023/07/29 00:57:03;;;;;;;;;;;21.00;99.90;;;21.29;66.68;98225.72;4977160;28;124794;-81
2023/07/29 00:59:31;;;;;;;;;;;21.00;99.90;;;21.30;66.71;98215.28;4968585;28;122945;-82
2023/07/29 01:01:58;;;;;;;;;;;21.00;99.90;;;21.30;66.63;98218.09;4985296;28;119608;-81
2023/07/29 01:04:27;;;;;;;;;;;21.00;99.90;;;21.30;66.80;98220.91;4988922;28;119585;-82
2023/07/29 01:07:02;;;;;;;;;;;21.00;99.90;;;21.31;66.81;98212.09;4986305;28;124093;-81
2023/07/29 01:09:50;;;;;;;;;;;21.00;99.90;;;21.32;66.41;98218.50;4987540;28;124014;-82
2023/07/29 01:12:38;;;;;;;;;;;21.00;99.90;;;21.33;66.49;98194.81;4988554;28;119428;-82
2023/07/29 01:15:28;;;;;;;;;;;21.00;99.90;;;21.32;66.86;98207.25;4986581;28;119040;-81
2023/07/29 01:17:56;;;;;;;;;;;21.00;99.90;;;21.30;67.06;98206.84;4978239;28;124812;-82
2023/07/29 01:20:27;;;;;;;;;;;21.00;99.90;;;21.30;66.74;98212.47;4959928;28;122936;-82
2023/07/29 01:22:53;;;;;;;;;;;21.00;99.90;;;21.29;66.83;98216.50;4998934;28;119222;-82
2023/07/29 01:25:19;;;;;;;;;;;21.00;99.90;;;21.26;66.88;98214.50;4987008;28;118486;-82
2023/07/29 01:27:51;;;;;;;;;;;21.00;99.90;;;21.24;66.85;98202.84;4986575;28;124179;-82
2023/07/29 01:30:19;;;;;;;;;;;21.00;99.90;;;21.24;66.85;98202.84;4987468;28;124447;-81
2023/07/29 01:32:53;;;;;;;;;;;21.00;99.90;;;21.25;66.59;98204.44;4988597;28;119404;-82
2023/07/29 01:35:23;;;;;;;;;;;21.00;99.90;;;21.24;66.42;98203.63;4986364;28;118752;-82
2023/07/29 01:38:02;;;;;;;;;;;21.00;99.90;;;21.24;66.80;98197.22;4982532;28;124873;-81
2023/07/29 01:40:30;;;;;;;;;;;21.00;99.90;;;21.25;66.70;98204.44;4982795;28;123948;-82
2023/07/29 01:42:57;;;;;;;;;;;21.00;99.90;;;21.22;66.50;98206.03;4978359;28;119085;-83
2023/07/29 01:45:26;;;;;;;;;;;21.00;99.90;;;21.21;66.49;98204.44;4988566;28;118834;-83
2023/07/29 01:47:53;;;;;;;;;;;21.00;99.90;;;21.22;66.61;98196.81;4982478;28;123389;-82
2023/07/29 01:50:19;;;;;;;;;;;21.00;99.90;;;21.23;66.78;98196.41;4978648;28;124045;-82
2023/07/29 01:52:50;;;;;;;;;;;21.70;99.90;;;21.25;66.56;98199.66;4971544;28;121012;-83
2023/07/29 01:55:16;;;;;;;;;;;21.00;99.90;;;21.28;66.51;98186.78;4987718;28;119639;-81
2023/07/29 01:57:46;;;;;;;;;;;21.00;99.90;;;21.29;66.67;98189.19;4973024;28;122181;-81
2023/07/29 02:00:15;;;;;;;;;;;21.00;99.90;;;21.30;66.89;98193.59;4989694;28;122987;-80
2023/07/29 02:02:41;;;;;;;;;;;21.00;99.90;;;21.31;66.58;98180.38;4987265;28;118974;-83
2023/07/29 02:05:08;;;;;;;;;;;21.10;99.90;;;21.32;66.37;98174.34;4982582;28;118820;-82
2023/07/29 02:07:34;;;;;;;;;;;21.00;99.90;;;21.34;66.60;98182.38;4980096;28;124223;-82
2023/07/29 02:10:03;;;;;;;;;;;21.10;99.90;;;21.34;66.48;98182.38;4987090;28;124048;-82
2023/07/29 02:12:33;;;;;;;;;;;21.00;99.90;;;21.34;66.59;98176.75;4986904;28;118654;-81
2023/07/29 02:14:59;;;;;;;;;;;21.00;99.90;;;21.34;66.88;98173.94;4989209;28;118464;-81
2023/07/29 02:17:27;;;;;;;;;;;21.10;99.90;;;21.33;66.88;98172.34;4984779;28;124127;-81
2023/07/29 02:19:53;;;;;;;;;;;21.00;99.90;;;21.33;66.69;98172.34;4987389;28;124317;-82
2023/07/29 02:22:22;;;;;;;;;;;21.00;99.90;;;21.31;66.81;98167.13;4974914;28;119363;-82
2023/07/29 02:24:48;;;;;;;;;;;21.10;99.90;;;21.30;66.68;98167.50;4987954;28;118463;-82
2023/07/29 02:27:15;;;;;;;;;;;21.00;99.90;;;21.30;66.52;98162.69;4987063;28;124162;-82
2023/07/29 02:29:42;;;;;;;;;;;21.00;99.90;;;21.28;66.54;98167.94;4986320;28;123898;-82
2023/07/29 02:32:08;;;;;;;;;;;21.00;99.90;;;21.28;66.74;98164.28;4979934;28;119571;-83
2023/07/29 02:34:35;;;;;;;;;;;21.00;99.90;;;21.26;66.53;98161.91;4970411;28;118677;-81
2023/07/29 02:37:04;;;;;;;;;;;21.00;99.90;;;21.26;66.60;98163.91;4976466;28;124309;-82
2023/07/29 02:39:33;;;;;;;;;;;21.00;99.90;;;21.25;66.62;98165.09;4982827;28;123328;-82
2023/07/29 02:41:59;;;;;;;;;;;21.00;99.90;;;21.22;66.75;98161.06;4973433;28;120057;-82
2023/07/29 02:44:28;;;;;;;;;;;21.00;99.90;;;21.20;66.52;98152.28;4977626;28;119727;-82
2023/07/29 02:46:55;;;;;;;;;;;20.90;99.90;;;21.21;66.37;98161.50;4970673;28;124089;-81
2023/07/29 02:49:22;;;;;;;;;;;21.00;99.90;;;21.20;66.43;98149.47;4978260;28;124005;-82
2023/07/29 02:51:55;;;;;;;;;;;20.90;99.90;;;21.19;66.74;98162.69;4972194;28;120162;-82
2023/07/29 02:54:21;;;;;;;;;;;21.00;99.90;;;21.17;66.37;98153.03;4987626;28;118187;-82
2023/07/29 02:56:52;;;;;;;;;;;20.90;99.90;;;21.17;66.27;98155.84;4985578;28;124104;-81
2023/07/29 02:59:18;;;;;;;;;;;20.90;99.90;;;21.16;66.38;98155.06;4981861;28;123914;-83
2023/07/29 03:01:44;;;;;;;;;;;20.90;99.90;;;21.15;66.28;98152.66;4986669;28;119699;-82
2023/07/29 03:04:18;;;;;;;;;;;20.90;99.90;;;21.15;66.23;98149.84;4980471;28;119689;-81
2023/07/29 03:06:45;;;;;;;;;;;20.90;99.90;;;21.15;66.20;98144.22;4980127;28;124142;-82
2023/07/29 03:09:11;;;;;;;;;;;20.90;99.90;;;21.15;66.12;98141.41;4985357;28;123918;-82
2023/07/29 03:11:44;;;;;;;;;;;20.90;99.90;;;21.15;66.42;98147.03;4968629;28;118470;-82
2023/07/29 03:14:10;;;;;;;;;;;20.90;99.90;;;21.15;66.47;98139.41;4967888;28;116906;-82
2023/07/29 03:16:36;;;;;;;;;;;20.90;99.90;;;21.15;66.36;98142.22;4986030;28;124389;-83
2023/07/29 03:19:06;;;;;;;;;;;20.90;99.90;;;21.15;66.54;98142.22;4986433;28;123851;-81
2023/07/29 03:21:32;;;;;;;;;;;20.90;99.90;;;21.18;66.75;98135.00;4980631;28;119610;-81
2023/07/29 03:23:58;;;;;;;;;;;20.90;99.90;;;21.17;66.38;98134.19;4982790;28;118685;-82
2023/07/29 03:26:25;;;;;;;;;;;20.90;99.90;;;21.16;66.40;98126.97;4985759;28;124860;-81
2023/07/29 03:28:58;;;;;;;;;;;20.90;99.90;;;21.15;66.20;98116.94;4987104;28;124779;-81
2023/07/29 03:31:24;;;;;;;;;;;20.90;99.90;;;21.15;66.67;98128.19;4986226;28;120973;-82
2023/07/29 03:33:53;;;;;;;;;;;20.90;99.90;;;21.14;66.76;98126.56;4988873;28;119578;-82
2023/07/29 03:36:21;;;;;;;;;;;20.90;99.90;;;21.14;66.25;98129.38;4985247;28;124182;-82
2023/07/29 03:38:47;;;;;;;;;;;20.90;99.90;;;21.11;66.77;98127.34;4983765;28;123862;-81
2023/07/29 03:41:23;;;;;;;;;;;20.90;99.90;;;21.09;66.40;98118.53;5029944;28;96996;-81
2023/07/29 03:43:49;;;;;;;;;;;20.90;99.90;;;21.06;66.88;98124.94;5005671;27;107229;-80
2023/07/29 03:46:21;;;;;;;;;;;20.80;99.90;;;21.05;67.03;98123.34;5032563;27;124126;-80
2023/07/29 03:48:54;;;;;;;;;;;20.80;99.90;;;21.03;66.67;98130.56;5025644;27;124106;-80
2023/07/29 03:51:31;;;;;;;;;;;20.80;99.90;;;21.03;66.83;98127.75;5010436;28;107671;-80
2023/07/29 03:53:57;;;;;;;;;;;20.80;99.90;;;21.04;67.01;98126.56;4989669;28;107084;-81
2023/07/29 03:56:30;;;;;;;;;;;20.80;99.90;;;21.03;66.84;98122.94;5026434;27;123669;-81
2023/07/29 03:59:08;;;;;;;;;;;20.80;99.90;;;21.02;66.79;98135.38;5037982;27;123813;-82
2023/07/29 04:01:37;;;;;;;;;;;20.80;99.90;;;21.04;66.52;98135.78;4995283;28;108116;-81
2023/07/29 04:04:05;;;;;;;;;;;20.80;99.90;;;21.02;66.77;98141.00;4997254;28;106887;-81
2023/07/29 04:06:32;;;;;;;;;;;19.50;99.90;;;21.01;67.06;98150.63;4995910;28;124489;-82
2023/07/29 04:09:00;;;;;;;;;;;20.80;99.90;;;21.01;67.23;98133.78;5025894;27;124000;-81
2023/07/29 04:11:29;;;;;;;;;;;20.70;99.90;;;21.00;67.22;98125.75;5033681;27;108382;-81
2023/07/29 04:13:58;;;;;;;;;;;20.80;99.90;;;21.00;67.04;98132.16;5004123;28;107382;-80
2023/07/29 04:16:24;;;;;;;;;;;20.80;99.90;;;21.03;67.21;98131.34;5008667;28;124602;-81
2023/07/29 04:18:53;;;;;;;;;;;20.80;99.90;;;21.05;67.44;98128.16;4994909;28;123341;-80
2023/07/29 04:21:22;;;;;;;;;;;20.80;99.90;;;21.04;67.24;98132.97;4995664;28;107586;-82
2023/07/29 04:23:48;;;;;;;;;;;20.70;99.90;;;21.02;67.72;98124.16;5001544;28;106887;-82
2023/07/29 04:26:14;;;;;;;;;;;20.80;99.90;;;21.02;67.40;98128.97;5033752;27;123545;-80
2023/07/29 04:28:47;;;;;;;;;;;20.70;99.90;;;21.00;67.73;98129.34;4994482;28;123980;-80
2023/07/29 04:31:14;;;;;;;;;;;20.80;99.90;;;20.97;67.71;98132.97;5014125;28;107692;-81
2023/07/29 04:33:40;;;;;;;;;;;20.80;99.90;;;20.99;67.75;98129.75;5001344;28;107750;-80
2023/07/29 04:36:10;;;;;;;;;;;20.70;99.90;;;20.96;67.62;98132.16;5016011;28;124018;-81
2023/07/29 04:38:37;;;;;;;;;;;20.80;99.90;;;20.96;67.80;98145.41;4996936;28;123811;-81
2023/07/29 04:41:06;;;;;;;;;;;19.30;99.90;;;20.95;67.91;98136.19;4999770;28;107738;-81
2023/07/29 04:43:33;;;;;;;;;;;20.70;99.90;;;20.96;68.00;98154.63;4996744;28;106536;-80
2023/07/29 04:45:59;;;;;;;;;;;20.70;99.90;;;20.96;68.02;98157.44;4989091;28;124253;-81
2023/07/29 04:48:25;;;;;;;;;;;20.70;99.90;;;20.93;68.07;98163.84;4994673;28;123840;-81
2023/07/29 04:50:55;;;;;;;;;;;20.70;99.90;;;20.93;68.37;98154.63;4987154;28;107717;-81
2023/07/29 04:53:23;;;;;;;;;;;20.70;99.90;;;20.93;68.44;98160.25;4978670;28;106085;-81
2023/07/29 04:55:49;;;;;;;;;;;20.70;99.90;;;20.93;68.55;98171.47;4974073;28;124008;-82
2023/07/29 04:58:17;;;;;;;;;;;20.70;99.90;;;20.94;68.74;98173.06;4980307;28;123868;-80
2023/07/29 05:00:46;;;;;;;;;;;20.70;99.90;;;20.94;68.61;98159.03;4979621;28;107575;-81
2023/07/29 05:03:12;;;;;;;;;;;20.70;99.90;;;20.95;69.04;98158.66;4983705;28;106852;-81
2023/07/29 05:05:44;;;;;;;;;;;20.70;99.90;;;20.95;68.89;98174.66;4976813;28;124615;-81
2023/07/29 05:08:10;;;;;;;;;;;20.70;99.90;;;20.95;69.35;98169.06;4988617;28;123639;-80
2023/07/29 05:10:36;;;;;;;;;;;20.70;99.90;;;20.95;69.43;98161.47;4989751;28;107700;-81
2023/07/29 05:13:06;;;;;;;;;;;20.70;99.90;;;20.97;69.36;98152.63;4983544;28;107081;-80
2023/07/29 05:15:32;;;;;;;;;;;20.70;99.90;;;20.98;69.25;98128.13;4988323;28;123435;-79
2023/07/29 05:18:00;;;;;;;;;;;20.70;99.90;;;20.99;69.11;98127.75;4975575;28;123907;-82
2023/07/29 05:20:30;;;;;;;;;;;20.70;99.90;;;21.01;69.01;98128.16;4978245;28;107563;-82
2023/07/29 05:22:56;;;;;;;;;;;20.70;99.90;;;21.02;69.02;98129.75;4981772;28;107235;-81
2023/07/29 05:25:26;;;;;;;;;;;20.70;99.90;;;21.05;69.11;98128.16;4985003;28;124804;-82
2023/07/29 05:27:52;;;;;;;;;;;20.70;99.90;;;21.05;69.26;98119.72;4981188;28;123668;-82
2023/07/29 05:30:19;;;;;;;;;;;20.70;99.90;;;21.08;69.21;98132.97;4988470;28;106978;-81
2023/07/29 05:32:45;;;;;;;;;;;20.80;99.90;;;21.08;69.45;98150.63;4987676;28;107066;-80
2023/07/29 05:35:11;;;;;;;;;;;20.70;99.90;;;21.08;69.47;98145.00;4992048;28;124163;-81
2023/07/29 05:37:41;;;;;;;;;;;20.80;99.90;;;21.10;69.42;98141.81;4986468;28;124282;-81
2023/07/29 05:40:13;;;;;;;;;;;20.80;99.90;;;21.10;69.16;98148.22;4986441;28;107438;-81
2023/07/29 05:42:39;;;;;;;;;;;20.80;99.90;;;21.11;69.18;98144.22;4996426;28;106665;-81
2023/07/29 05:45:06;;;;;;;;;;;20.80;99.90;;;21.14;69.33;98139.81;5011172;28;124791;-81
2023/07/29 05:47:35;;;;;;;;;;;20.80;99.90;;;21.13;69.45;98127.75;4996746;28;123199;-81
2023/07/29 05:50:04;;;;;;;;;;;20.80;99.90;;;21.15;69.44;98133.78;4994687;28;106736;-81
2023/07/29 05:52:39;;;;;;;;;;;20.80;99.90;;;21.15;69.59;98133.78;4993720;28;107066;-82
2023/07/29 05:55:11;;;;;;;;;;;20.80;99.90;;;21.18;69.57;98133.00;5006714;28;123943;-81
2023/07/29 05:57:37;;;;;;;;;;;20.90;99.90;;;21.22;69.38;98115.31;4993557;28;124875;-82
2023/07/29 06:00:06;;;;;;;;;;;20.90;99.90;;;21.25;69.37;98125.75;4979405;28;107563;-82
2023/07/29 06:02:35;;;;;;;;;;;20.90;99.90;;;21.28;69.30;98116.53;4985376;28;107033;-81
2023/07/29 06:05:02;;;;;;;;;;;20.90;99.90;;;21.31;69.64;98113.75;4984330;28;126526;-81
2023/07/29 06:07:30;;;;;;;;;;;20.90;99.90;;;21.36;69.32;98120.97;4972918;28;124199;-82
2023/07/29 06:09:58;;;;;;;;;;;21.00;99.90;;;21.40;69.14;98122.59;4998731;28;107192;-82
2023/07/29 06:12:24;;;;;;;;;;;21.00;99.90;;;21.44;69.33;98122.59;4986848;28;107197;-81
2023/07/29 06:14:51;;;;;;;;;;;21.10;99.90;;;21.49;69.22;98118.56;4971843;28;124326;-81
2023/07/29 06:17:17;;;;;;;;;;;21.10;99.90;;;21.53;69.47;98125.00;4997743;28;123840;-81
2023/07/29 06:19:46;;;;;;;;;;;21.10;99.90;;;21.55;69.02;98128.22;4971817;28;107529;-81
2023/07/29 06:22:13;;;;;;;;;;;21.20;99.90;;;21.58;69.25;98122.59;4985389;28;107047;-81
2023/07/29 06:24:39;;;;;;;;;;;21.20;99.90;;;21.61;69.35;98120.97;4998006;28;124380;-81
2023/07/29 06:27:05;;;;;;;;;;;21.30;99.90;;;21.65;69.57;98120.97;4995296;28;123862;-80
2023/07/29 06:29:35;;;;;;;;;;;21.30;99.90;;;21.72;69.57;98133.00;4990640;28;106869;-82
2023/07/29 06:32:01;;;;;;;;;;;21.30;99.90;;;21.77;69.13;98134.63;4987767;28;106270;-81
2023/07/29 06:34:27;;;;;;;;;;;21.30;99.90;;;21.80;69.36;98131.00;4990424;28;124500;-81
2023/07/29 06:36:53;;;;;;;;;;;21.40;99.90;;;21.82;69.35;98132.19;4978680;28;124716;-81
2023/07/29 06:39:23;;;;;;;;;;;21.40;99.90;;;21.85;69.48;98136.22;4979316;28;107500;-81
2023/07/29 06:41:49;;;;;;;;;;;21.50;99.90;;;21.86;69.34;98137.00;4988923;28;106734;-81
2023/07/29 06:44:16;;;;;;;;;;;21.50;99.90;;;21.87;69.50;98147.88;4990378;28;124331;-82
2023/07/29 06:46:42;;;;;;;;;;;21.50;99.90;;;21.87;69.51;98139.44;4988325;28;124484;-82
2023/07/29 06:49:11;;;;;;;;;;;21.50;99.90;;;21.90;69.44;98140.63;4990498;28;107460;-81
2023/07/29 06:51:38;;;;;;;;;;;21.50;99.90;;;21.91;69.45;98131.78;4996058;28;106873;-80
2023/07/29 06:54:04;;;;;;;;;;;21.50;99.90;;;21.92;69.45;98141.81;4991390;28;125301;-80
2023/07/29 06:56:30;;;;;;;;;;;21.60;99.90;;;21.94;69.43;98150.66;4972673;28;123697;-81
2023/07/29 06:59:04;;;;;;;;;;;21.60;99.90;;;21.94;69.20;98150.66;4979494;28;107411;-82
2023/07/29 07:01:30;;;;;;;;;;;21.60;99.90;;;21.94;69.50;98161.91;4973379;28;107069;-80
2023/07/29 07:04:00;;;;;;;;;;;21.60;99.90;;;21.94;69.20;98164.72;4986559;28;124557;-81
2023/07/29 07:06:26;;;;;;;;;;;21.60;99.90;;;21.95;69.58;98174.78;4980965;28;123855;-80
2023/07/29 07:08:52;;;;;;;;;;;21.60;99.90;;;21.94;69.40;98166.72;4972503;28;106474;-81
2023/07/29 07:11:19;;;;;;;;;;;21.60;99.90;;;21.91;69.59;98176.78;4999094;28;105787;-81
2023/07/29 07:13:48;;;;;;;;;;;21.50;99.90;;;21.87;69.97;98181.63;4985191;28;124192;-81
2023/07/29 07:16:15;;;;;;;;;;;21.50;99.90;;;21.84;69.95;98176.78;4970771;28;123787;-81
2023/07/29 07:18:41;;;;;;;;;;;21.50;99.90;;;21.83;69.82;98178.00;4986390;28;107190;-81
2023/07/29 07:21:13;;;;;;;;;;;21.50;99.90;;;21.84;70.22;98185.22;4974677;28;106903;-80
2023/07/29 07:23:40;;;;;;;;;;;21.50;99.90;;;21.82;69.86;98182.81;4979223;28;124877;-80
2023/07/29 07:26:06;;;;;;;;;;;21.50;99.90;;;21.79;70.11;98174.41;4994432;28;122882;-81
2023/07/29 07:28:35;;;;;;;;;;;21.50;99.90;;;21.78;70.53;98181.22;4990962;28;107492;-80
2023/07/29 07:31:04;;;;;;;;;;;21.50;99.90;;;21.78;70.11;98173.56;4997060;28;106189;-80
2023/07/29 07:33:30;;;;;;;;;;;21.50;99.90;;;21.79;70.47;98178.00;4990018;28;124826;-79
2023/07/29 07:35:59;;;;;;;;;;;21.50;99.90;;;21.79;70.14;98188.47;4990080;28;125853;-80
2023/07/29 07:38:26;;;;;;;;;;;21.50;99.90;;;21.75;69.99;98187.66;4967012;28;106604;-78
2023/07/29 07:40:59;;;;;;;;;;;21.40;99.90;;;21.75;69.89;98179.22;4973313;28;107318;-81
2023/07/29 07:43:28;;;;;;;;;;;21.40;99.90;;;21.73;69.60;98178.81;4996098;28;124609;-81
2023/07/29 07:46:03;;;;;;;;;;;21.40;99.90;;;21.72;69.55;98177.22;4995541;28;122986;-81
2023/07/29 07:48:29;;;;;;;;;;;21.40;99.90;;;21.71;69.38;98172.78;4997041;28;109373;-81
2023/07/29 07:51:12;;;;;;;;;;;21.40;99.90;;;21.72;69.61;98183.63;4980703;28;108843;-82
2023/07/29 07:53:40;;;;;;;;;;;21.40;99.90;;;21.75;69.25;98173.59;4981286;28;124238;-79
2023/07/29 07:56:07;;;;;;;;;;;21.40;99.90;;;21.77;69.54;98179.63;4977367;28;124521;-82
2023/07/29 07:58:35;;;;;;;;;;;21.50;99.90;;;21.79;69.33;98180.03;4973454;28;110538;-80
2023/07/29 08:01:06;;;;;;;;;;;21.50;99.90;;;21.81;69.31;98178.38;4976818;28;111550;-79
2023/07/29 08:03:35;;;;;;;;;;;21.50;99.90;;;21.83;69.30;98164.72;4981484;28;124493;-82
2023/07/29 08:06:02;;;;;;;;;;;21.50;99.90;;;21.89;69.63;98176.38;4977454;28;123741;-80
2023/07/29 08:08:31;;;;;;;;;;;21.60;99.90;;;21.93;69.42;98171.56;4975374;28;109464;-80
2023/07/29 08:11:00;;;;;;;;;;;21.60;99.90;;;21.97;69.89;98177.16;4996731;28;108304;-80
2023/07/29 08:13:26;;;;;;;;;;;21.60;99.90;;;21.99;70.07;98186.03;4989189;28;125033;-79
2023/07/29 08:15:53;;;;;;;;;;;21.70;99.90;;;22.00;69.64;98188.44;4985628;28;125192;-79
2023/07/29 08:18:25;;;;;;;;;;;21.70;99.90;;;22.03;69.40;98192.44;4983360;28;109268;-79
2023/07/29 08:21:02;;;;;;;;;;;21.70;99.90;;;22.09;69.39;98206.91;4983401;28;108614;-79
2023/07/29 08:23:36;;;;;;;;;;;21.70;99.90;;;22.12;69.31;98206.09;4969787;28;124024;-79
2023/07/29 08:26:05;;;;;;;;;;;21.70;99.90;;;22.16;69.47;98195.63;4985279;28;124495;-80
2023/07/29 08:28:38;;;;;;;;;;;21.80;99.90;;;22.18;69.31;98196.03;4974114;28;109434;-79
2023/07/29 08:31:05;;;;;;;;;;;21.80;99.90;;;22.22;68.80;98205.31;4976574;28;108232;-80
2023/07/29 08:33:34;;;;;;;;;;;21.80;99.90;;;22.25;68.79;98204.50;4979387;28;124419;-80
2023/07/29 08:36:01;;;;;;;;;;;21.90;99.90;;;22.29;68.57;98194.03;4972164;28;123744;-80
2023/07/29 08:38:28;;;;;;;;;;;21.90;99.90;;;22.33;68.30;98189.19;4971370;28;109475;-80
2023/07/29 08:41:14;;;;;;;;;;;21.90;99.90;;;22.37;68.30;98198.41;4989840;28;108296;-80
2023/07/29 08:44:06;;;;;;;;;;;22.00;99.90;;;22.41;68.02;98187.97;4971599;28;124448;-79
2023/07/29 08:46:34;;;;;;;;;;;22.00;99.90;;;22.47;68.10;98182.72;4984512;28;124623;-81
2023/07/29 08:49:02;;;;;;;;;;;22.10;99.90;;;22.56;67.96;98190.72;4977475;28;110248;-80
2023/07/29 08:51:34;;;;;;;;;;;22.10;99.90;;;22.65;67.67;98188.28;4984654;28;109014;-80
2023/07/29 08:54:01;;;;;;;;;;;22.20;99.90;;;22.70;67.66;98187.84;4972368;28;123705;-81
2023/07/29 08:56:27;;;;;;;;;;;22.30;99.90;;;22.79;67.39;98188.22;4986766;28;123116;-80
2023/07/29 08:59:04;;;;;;;;;;;22.40;99.90;;;22.91;67.18;98190.56;4985361;28;108949;-80
2023/07/29 09:01:48;;;;;;;;;;;22.50;99.90;;;23.01;67.18;98191.75;4971951;28;108954;-79
2023/07/29 09:04:14;;;;;;;;;;;22.60;99.90;;;23.11;65.97;98196.53;4986901;28;123311;-80
2023/07/29 09:06:43;;;;;;;;;;;22.60;99.90;;;23.21;65.87;98192.03;4979171;28;124071;-80
2023/07/29 09:09:12;;;;;;;;;;;22.70;99.90;;;23.31;65.93;98190.38;4980515;28;109336;-80
2023/07/29 09:11:40;;;;;;;;;;;22.80;99.90;;;23.41;65.68;98188.72;4995531;28;108613;-80
2023/07/29 09:14:12;;;;;;;;;;;22.90;99.90;;;23.50;65.69;98172.91;4981642;28;126540;-79
2023/07/29 09:16:41;;;;;;;;;;;23.00;99.90;;;23.59;65.39;98173.25;4991201;28;123932;-80
2023/07/29 09:19:11;;;;;;;;;;;23.10;99.90;;;23.69;65.32;98176.38;4992193;28;109659;-80
2023/07/29 09:21:40;;;;;;;;;;;23.20;99.90;;;23.75;64.37;98164.28;4992374;28;108232;-80
2023/07/29 09:24:15;;;;;;;;;;;23.20;99.90;;;23.80;63.94;98163.84;4994987;28;123696;-79
2023/07/29 09:26:48;;;;;;;;;;;23.30;99.90;;;23.88;63.65;98175.03;4989274;28;124042;-80
2023/07/29 09:29:15;;;;;;;;;;;23.40;99.90;;;23.98;63.12;98157.22;4986812;28;109628;-80
2023/07/29 09:31:41;;;;;;;;;;;23.40;99.90;;;24.06;62.60;98166.41;4975887;28;108177;-80
2023/07/29 09:34:16;;;;;;;;;;;23.50;99.90;;;24.12;62.60;98161.91;4984346;28;124580;-80
2023/07/29 09:36:42;;;;;;;;;;;23.60;99.90;;;24.19;62.10;98164.66;4992397;28;123355;-79
2023/07/29 09:39:15;;;;;;;;;;;23.70;99.90;;;24.28;61.46;98164.16;4993388;28;110751;-79
2023/07/29 09:41:47;;;;;;;;;;;23.80;99.90;;;24.32;61.04;98153.66;4992221;28;109625;-80
2023/07/29 09:44:16;;;;;;;;;;;23.80;99.90;;;24.37;61.18;98170.13;4970184;28;123116;-79
2023/07/29 09:46:51;;;;;;;;;;;23.90;99.90;;;24.45;61.10;98188.63;4970604;28;123437;-79
2023/07/29 09:49:17;;;;;;;;;;;24.00;99.90;;;24.50;60.30;98168.38;4972782;28;109485;-80
2023/07/29 09:51:43;;;;;;;;;;;24.00;99.70;;;24.54;60.42;98171.97;4975388;28;108515;-79
2023/07/29 09:54:13;;;;;;;;;;;24.00;99.60;;;24.60;59.11;98150.50;4990271;28;123805;-80
2023/07/29 09:56:44;;;;;;;;;;;24.10;99.10;;;24.64;58.91;98168.22;4994520;28;123924;-80
2023/07/29 09:59:19;;;;;;;;;;;24.10;99.00;;;24.67;58.14;98161.72;4970802;28;108591;-80
2023/07/29 10:01:48;;;;;;;;;;;24.20;98.70;;;24.70;58.09;98171.38;4984471;28;108625;-80
2023/07/29 10:04:14;;;;;;;;;;;24.20;98.40;;;24.74;58.28;98166.44;4986377;28;124413;-78
2023/07/29 10:06:43;;;;;;;;;;;24.30;98.40;;;24.81;57.83;98157.09;4972723;28;123979;-79
2023/07/29 10:09:12;;;;;;;;;;;24.30;98.30;;;24.86;57.28;98132.00;4985240;28;108585;-79
2023/07/29 10:11:39;;;;;;;;;;;24.40;97.90;;;24.93;57.20;98150.84;4977117;28;109325;-79
2023/07/29 10:14:09;;;;;;;;;;;24.50;97.80;;;25.01;56.52;98148.75;4974212;28;124233;-80
2023/07/29 10:16:45;;;;;;;;;;;24.50;97.50;;;25.06;55.76;98146.22;4977860;28;123753;-80
2023/07/29 10:19:14;;;;;;;;;;;24.60;97.00;;;25.08;55.05;98138.13;4982724;28;108579;-80
2023/07/29 10:21:44;;;;;;;;;;;24.70;96.30;;;25.08;54.93;98146.63;4976928;28;108802;-80
2023/07/29 10:24:28;;;;;;;;;;;24.70;96.10;;;25.11;54.76;98156.28;4971798;28;124092;-79
2023/07/29 10:27:01;;;;;;;;;;;24.70;96.00;;;25.10;55.05;98149.03;4981542;28;123940;-80
2023/07/29 10:29:34;;;;;;;;;;;24.70;96.10;;;25.11;54.46;98147.78;4978009;28;110048;-79
2023/07/29 10:32:07;;;;;;;;;;;24.70;95.80;;;25.09;55.17;98168.03;4972457;28;109850;-79
2023/07/29 10:34:38;;;;;;;;;;;24.70;96.10;;;25.08;55.91;98162.78;4979114;28;124841;-79
2023/07/29 10:37:09;;;;;;;;;;;24.80;96.50;;;25.08;56.29;98169.22;4970111;28;123702;-80
2023/07/29 10:39:55;;;;;;;;;;;24.80;96.80;;;25.09;57.22;98175.69;4982345;28;109043;-79
2023/07/29 10:42:21;;;;;;;;;;;24.90;97.10;;;25.06;58.10;98168.84;4973741;28;108578;-79
2023/07/29 10:44:49;;;;;;;;;;;24.80;97.50;;;25.07;57.76;98167.63;4978517;28;124771;-80
2023/07/29 10:47:20;;;;;;;;;;;24.90;97.60;;;25.07;57.89;98175.31;4987946;28;123990;-80
2023/07/29 10:49:48;;;;;;;;;;;24.80;97.60;;;25.06;58.05;98173.69;4981804;28;109503;-80
2023/07/29 10:52:35;;;;;;;;;;;24.80;97.60;;;25.01;57.35;98175.00;4976130;28;108950;-79
2023/07/29 10:55:03;;;;;;;;;;;24.80;97.30;;;24.99;57.40;98174.63;4991923;28;125393;-79
2023/07/29 10:57:40;;;;;;;;;;;24.70;97.40;;;25.01;57.97;98165.69;4966397;28;123530;-80
2023/07/29 11:00:10;;;;;;;;;;;24.80;97.50;;;25.05;57.08;98157.97;4984554;28;109478;-80
2023/07/29 11:02:38;;;;;;;;;;;24.80;97.20;;;25.08;57.43;98155.09;4972827;28;108825;-80
2023/07/29 11:05:26;;;;;;;;;;;24.80;97.20;;;25.10;56.38;98157.50;4977247;28;124059;-79
2023/07/29 11:07:58;;;;;;;;;;;24.80;97.00;;;25.16;55.92;98167.13;4972323;28;124655;-79
2023/07/29 11:10:24;;;;;;;;;;;24.80;96.70;;;25.23;56.06;98163.41;4979523;28;108163;-79
2023/07/29 11:12:57;;;;;;;;;;;24.90;96.80;;;25.31;55.16;98164.91;4972382;28;108680;-80
2023/07/29 11:15:33;;;;;;;;;;;24.90;96.50;;;25.38;54.70;98163.97;4987377;28;125043;-79
2023/07/29 11:18:01;;;;;;;;;;;25.00;96.30;;;25.45;54.31;98163.88;4982800;28;124094;-79